Robstown, TX (78380)

2:55 PM CST on February 13, 2016 (GMT -0600)
Greater Agua Dulce | | Change Station
CLOSE
Current Station
Personal Weather Station
Location: Agua Dulce, TX
Elevation: 118 ft
Nearby Weather Stations

Elev 118 ft 27.80 °N, 97.90 °W | Updated 12 minutes ago

Partly Cloudy
Partly Cloudy
80.1 °F
Feels Like 80 °F
N
12.5
Wind Variable Wind from SSE

Today
High -- | Low -- °F
--% Chance of Precip.
Yesterday
High -- | Low -- °F
Precip. -- in
Pressure 30.24 in
Visibility 10.0 miles
Clouds Clear
Heat Index 80 °F
Dew Point 53 °F
Humidity 39%
Rainfall 0.00 in
Snow Depth Not available.
7:10 AM 6:20 PM
Waxing Crescent, 34% visible
METAR KRBO 132035Z AUTO 13015G20KT 10SM CLR 25/12 A3024 RMK AO2 T02540115
Pressure 30.24 in
Visibility 10.0 miles
Clouds Clear
Heat Index 80 °F
Dew Point 53 °F
Humidity 39%
Rainfall 0.00 in
Snow Depth Not available.
7:10 AM 6:20 PM
Waxing Crescent, 34% visible
METAR KRBO 132035Z AUTO 13015G20KT 10SM CLR 25/12 A3024 RMK AO2 T02540115

10-Day Weather Forecast

Almanac

Astronomy

Feb. 13, 2016 Rise Set
Actual Time
Civil Twilight
Nautical Twilight
Astronomical Twilight
Moon
Length of Visible Light
Length of Day
Tomorrow will be .
, % of the Moon is Illuminated

Today's Extremes

State Highs State Lows

Community

WunderPhotos

Upload Photos

1,892,666 photos uploaded!

WunderBlog® & News

Nearby

Air Quality

  Air Quality AQ Index Pollutant
Not available.

Snow Depth

Station Depth Elevation

Earthquake Activity

City Distance Mag. Time & Date
Minimum magnitude displayed is 2.5.

Coastal Water Temperatures

Place Temperature

Stations

Nearby Weather Stations

Station Location Temp. Windchill Dew Point Humidity Wind Precip. Elev Updated Type
                   

Watches & Warnings

There are currently no watches in effect.